首页
METAR-TAF:

METAR-TAF

机场 :

黑堡, 弗吉尼亚州, 美国

纬度: 37-13N, 经度: 080-25W, 海拔: 650米

当前天气观测

该预报发布于11分钟前的09:15 UTC
风速5节,风向东北
温度 9°C
湿度 100%
气压 1012 hPa
能見度: 2.0公里
阴天层高于300英尺
小雪

METAR: KBCB 200915Z AUTO 05005KT 1 1/4SM -SN OVC003 09/09 A2989 RMK AO2 P0017 T00870087

时间: 05:26 (09:26 UTC)

预报

该预报发布于31分钟前的08:55 UTC
预报有效从20日的 09点(UTC)到 21日的 06点(UTC)
风速5节,风向东转东北
能見度: 6.4公里
阴天层高于500英尺
雨, 轻雾
短暂存在
从 20日的 09点(UTC)到 20日的 10点(UTC)
能見度: 2.4公里
散云层高于500英尺
阴天层高于2000英尺
大雨, 轻雾
从 20日的 1000点(UTC)
风速8节,风向
能見度: 1.6公里
阴天层高于500英尺
雨, 轻雾
从 20日的 1200点(UTC)
风速7节,风向
能見度: 1.6公里
阴天层高于1500英尺
小雨, 轻雾
从 20日的 1800点(UTC)
风速4节,风向北转西北
能見度: 10公里
多云层高于3000英尺
从 20日的 2000点(UTC)
风速3节,风向北转西北
能見度: 10公里
散云层高于3000英尺

TAF: KBCB 200855Z 2009/2106 07005KT 4SM RA BR OVC005 TEMPO 2009/2010 1 1/2SM +RA BR SCT005 OVC020 FM201000 08008KT 2SM RA BR OVC005 FM201200 36007KT 4SM -RA BR OVC015 FM201800 34004KT P6SM BKN030 FM202000 34003KT P6SM SCT030

超过4000个机场的气象观测和天气预报(METAR&TAF报告)。

可查询的气象台以黄色和红色小点在地图上表示。

将鼠标移到小点上方,可查看气象台名称。

然后点击查看天气观测和预报。

如需切换地图:点击带黑十字的绿色按钮放大地图;点击带横线的绿色按钮缩小地图;或者点击绿色箭头查看邻近地区的地图。


METAR-TAF: